sensor_id;sensor_type;location;lat;lon;timestamp;P1;durP1;ratioP1;P2;durP2;ratioP2
85102;SDS011;75452;44.106;3.074;2024-02-04T00:01:39;2.63;;;2.47;;
85102;SDS011;75452;44.106;3.074;2024-02-04T00:04:04;2.67;;;2.47;;
85102;SDS011;75452;44.106;3.074;2024-02-04T00:06:30;2.75;;;2.60;;
85102;SDS011;75452;44.106;3.074;2024-02-04T00:08:55;2.72;;;2.42;;
85102;SDS011;75452;44.106;3.074;2024-02-04T00:11:21;3.30;;;3.10;;
85102;SDS011;75452;44.106;3.074;2024-02-04T00:13:46;2.83;;;2.63;;
85102;SDS011;75452;44.106;3.074;2024-02-04T00:16:11;2.83;;;2.63;;
85102;SDS011;75452;44.106;3.074;2024-02-04T00:18:37;2.90;;;2.70;;
85102;SDS011;75452;44.106;3.074;2024-02-04T00:21:02;2.83;;;2.63;;
85102;SDS011;75452;44.106;3.074;2024-02-04T00:23:28;2.80;;;2.60;;
85102;SDS011;75452;44.106;3.074;2024-02-04T00:25:53;2.00;;;1.90;;
85102;SDS011;75452;44.106;3.074;2024-02-04T00:28:18;2.55;;;2.38;;
85102;SDS011;75452;44.106;3.074;2024-02-04T00:30:45;2.40;;;2.30;;
85102;SDS011;75452;44.106;3.074;2024-02-04T00:33:10;2.53;;;2.33;;
85102;SDS011;75452;44.106;3.074;2024-02-04T00:35:36;2.47;;;2.35;;
85102;SDS011;75452;44.106;3.074;2024-02-04T00:38:01;2.30;;;2.20;;
85102;SDS011;75452;44.106;3.074;2024-02-04T00:40:28;2.20;;;2.10;;
85102;SDS011;75452;44.106;3.074;2024-02-04T00:42:53;2.58;;;2.40;;
85102;SDS011;75452;44.106;3.074;2024-02-04T00:45:20;2.45;;;2.25;;
85102;SDS011;75452;44.106;3.074;2024-02-04T00:47:45;2.47;;;2.33;;
85102;SDS011;75452;44.106;3.074;2024-02-04T00:50:10;2.17;;;2.08;;
85102;SDS011;75452;44.106;3.074;2024-02-04T00:52:38;2.55;;;2.40;;
85102;SDS011;75452;44.106;3.074;2024-02-04T00:55:03;2.55;;;2.35;;
85102;SDS011;75452;44.106;3.074;2024-02-04T00:57:29;2.40;;;2.30;;
85102;SDS011;75452;44.106;3.074;2024-02-04T00:59:54;2.10;;;2.00;;
85102;SDS011;75452;44.106;3.074;2024-02-04T01:02:20;2.30;;;2.13;;
85102;SDS011;75452;44.106;3.074;2024-02-04T01:04:45;2.30;;;2.20;;
85102;SDS011;75452;44.106;3.074;2024-02-04T01:07:10;2.83;;;2.63;;
85102;SDS011;75452;44.106;3.074;2024-02-04T01:09:36;2.88;;;2.67;;
85102;SDS011;75452;44.106;3.074;2024-02-04T01:12:01;2.65;;;2.45;;
85102;SDS011;75452;44.106;3.074;2024-02-04T01:14:28;2.67;;;2.47;;
85102;SDS011;75452;44.106;3.074;2024-02-04T01:16:53;2.85;;;2.65;;
85102;SDS011;75452;44.106;3.074;2024-02-04T01:19:19;2.22;;;2.13;;
85102;SDS011;75452;44.106;3.074;2024-02-04T01:21:44;2.35;;;2.25;;
85102;SDS011;75452;44.106;3.074;2024-02-04T01:24:10;2.30;;;2.20;;
85102;SDS011;75452;44.106;3.074;2024-02-04T01:26:35;2.40;;;2.30;;
85102;SDS011;75452;44.106;3.074;2024-02-04T01:29:00;2.20;;;2.10;;
85102;SDS011;75452;44.106;3.074;2024-02-04T01:31:26;2.45;;;2.25;;
85102;SDS011;75452;44.106;3.074;2024-02-04T01:33:52;2.70;;;2.50;;
85102;SDS011;75452;44.106;3.074;2024-02-04T01:36:17;2.50;;;2.33;;
85102;SDS011;75452;44.106;3.074;2024-02-04T01:38:42;2.80;;;2.60;;
85102;SDS011;75452;44.106;3.074;2024-02-04T01:41:08;2.53;;;2.42;;
85102;SDS011;75452;44.106;3.074;2024-02-04T01:43:33;2.50;;;2.30;;
85102;SDS011;75452;44.106;3.074;2024-02-04T01:45:59;2.25;;;2.10;;
85102;SDS011;75452;44.106;3.074;2024-02-04T01:48:24;2.80;;;2.60;;
85102;SDS011;75452;44.106;3.074;2024-02-04T01:50:51;2.50;;;2.30;;
85102;SDS011;75452;44.106;3.074;2024-02-04T01:53:19;2.08;;;1.98;;
85102;SDS011;75452;44.106;3.074;2024-02-04T01:55:46;2.63;;;2.42;;
85102;SDS011;75452;44.106;3.074;2024-02-04T01:58:11;1.95;;;1.85;;
85102;SDS011;75452;44.106;3.074;2024-02-04T02:00:37;2.30;;;2.20;;
85102;SDS011;75452;44.106;3.074;2024-02-04T02:03:03;2.45;;;2.25;;
85102;SDS011;75452;44.106;3.074;2024-02-04T02:05:30;2.20;;;2.10;;
85102;SDS011;75452;44.106;3.074;2024-02-04T02:07:55;1.92;;;1.83;;
85102;SDS011;75452;44.106;3.074;2024-02-04T02:10:21;2.42;;;2.30;;
85102;SDS011;75452;44.106;3.074;2024-02-04T02:12:52;2.65;;;2.47;;
85102;SDS011;75452;44.106;3.074;2024-02-04T02:15:33;2.33;;;2.15;;
85102;SDS011;75452;44.106;3.074;2024-02-04T02:18:04;2.20;;;2.10;;
85102;SDS011;75452;44.106;3.074;2024-02-04T02:20:49;2.72;;;2.53;;
85102;SDS011;75452;44.106;3.074;2024-02-04T02:23:36;2.17;;;2.08;;
85102;SDS011;75452;44.106;3.074;2024-02-04T02:26:06;2.78;;;2.58;;
85102;SDS011;75452;44.106;3.074;2024-02-04T02:28:31;3.10;;;2.90;;
85102;SDS011;75452;44.106;3.074;2024-02-04T02:30:57;2.90;;;2.60;;
85102;SDS011;75452;44.106;3.074;2024-02-04T02:33:23;3.33;;;3.03;;
85102;SDS011;75452;44.106;3.074;2024-02-04T02:35:50;3.13;;;2.92;;
85102;SDS011;75452;44.106;3.074;2024-02-04T02:38:33;2.65;;;2.45;;
85102;SDS011;75452;44.106;3.074;2024-02-04T02:41:04;2.45;;;2.25;;
85102;SDS011;75452;44.106;3.074;2024-02-04T02:43:29;2.80;;;2.60;;
85102;SDS011;75452;44.106;3.074;2024-02-04T02:45:55;2.70;;;2.50;;
85102;SDS011;75452;44.106;3.074;2024-02-04T02:48:21;2.80;;;2.60;;
85102;SDS011;75452;44.106;3.074;2024-02-04T02:50:47;2.58;;;2.40;;
85102;SDS011;75452;44.106;3.074;2024-02-04T02:53:12;2.38;;;2.28;;
85102;SDS011;75452;44.106;3.074;2024-02-04T02:55:38;2.80;;;2.60;;
85102;SDS011;75452;44.106;3.074;2024-02-04T02:58:04;2.50;;;2.30;;
85102;SDS011;75452;44.106;3.074;2024-02-04T03:00:30;2.05;;;1.80;;
85102;SDS011;75452;44.106;3.074;2024-02-04T03:02:55;2.35;;;2.15;;
85102;SDS011;75452;44.106;3.074;2024-02-04T03:05:21;2.40;;;2.20;;
85102;SDS011;75452;44.106;3.074;2024-02-04T03:07:46;2.42;;;2.25;;
85102;SDS011;75452;44.106;3.074;2024-02-04T03:10:11;2.47;;;2.10;;
85102;SDS011;75452;44.106;3.074;2024-02-04T03:12:37;2.63;;;2.42;;
85102;SDS011;75452;44.106;3.074;2024-02-04T03:15:02;3.00;;;2.63;;
85102;SDS011;75452;44.106;3.074;2024-02-04T03:17:28;2.83;;;2.63;;
85102;SDS011;75452;44.106;3.074;2024-02-04T03:19:54;2.63;;;2.42;;
85102;SDS011;75452;44.106;3.074;2024-02-04T03:22:22;2.42;;;2.33;;
85102;SDS011;75452;44.106;3.074;2024-02-04T03:24:48;2.58;;;2.42;;
85102;SDS011;75452;44.106;3.074;2024-02-04T03:27:15;3.20;;;2.90;;
85102;SDS011;75452;44.106;3.074;2024-02-04T03:29:43;2.85;;;2.65;;
85102;SDS011;75452;44.106;3.074;2024-02-04T03:32:10;2.22;;;2.13;;
85102;SDS011;75452;44.106;3.074;2024-02-04T03:34:35;2.78;;;2.28;;
85102;SDS011;75452;44.106;3.074;2024-02-04T03:37:01;2.47;;;2.35;;
85102;SDS011;75452;44.106;3.074;2024-02-04T03:39:26;2.38;;;2.28;;
85102;SDS011;75452;44.106;3.074;2024-02-04T03:41:52;2.42;;;2.33;;
85102;SDS011;75452;44.106;3.074;2024-02-04T03:44:17;2.55;;;2.35;;
85102;SDS011;75452;44.106;3.074;2024-02-04T03:46:43;2.42;;;2.30;;
85102;SDS011;75452;44.106;3.074;2024-02-04T03:49:08;2.38;;;2.28;;
85102;SDS011;75452;44.106;3.074;2024-02-04T03:51:34;2.20;;;2.10;;
85102;SDS011;75452;44.106;3.074;2024-02-04T03:53:59;2.78;;;2.58;;
85102;SDS011;75452;44.106;3.074;2024-02-04T03:56:25;2.60;;;2.45;;
85102;SDS011;75452;44.106;3.074;2024-02-04T03:58:50;2.78;;;2.58;;
85102;SDS011;75452;44.106;3.074;2024-02-04T04:01:15;2.42;;;2.33;;
85102;SDS011;75452;44.106;3.074;2024-02-04T04:03:41;2.80;;;2.60;;
85102;SDS011;75452;44.106;3.074;2024-02-04T04:06:07;2.75;;;2.55;;
85102;SDS011;75452;44.106;3.074;2024-02-04T04:08:34;2.72;;;2.53;;
85102;SDS011;75452;44.106;3.074;2024-02-04T04:10:59;2.55;;;2.40;;
85102;SDS011;75452;44.106;3.074;2024-02-04T04:13:25;2.97;;;2.47;;
85102;SDS011;75452;44.106;3.074;2024-02-04T04:15:50;2.35;;;2.25;;
85102;SDS011;75452;44.106;3.074;2024-02-04T04:18:16;2.33;;;2.22;;
85102;SDS011;75452;44.106;3.074;2024-02-04T04:20:41;2.40;;;2.28;;
85102;SDS011;75452;44.106;3.074;2024-02-04T04:23:07;2.40;;;2.22;;
85102;SDS011;75452;44.106;3.074;2024-02-04T04:25:32;2.28;;;2.17;;
85102;SDS011;75452;44.106;3.074;2024-02-04T04:27:58;2.55;;;2.38;;
85102;SDS011;75452;44.106;3.074;2024-02-04T04:30:24;2.47;;;2.38;;
85102;SDS011;75452;44.106;3.074;2024-02-04T04:32:49;2.67;;;2.47;;
85102;SDS011;75452;44.106;3.074;2024-02-04T04:35:14;2.38;;;2.28;;
85102;SDS011;75452;44.106;3.074;2024-02-04T04:37:40;2.25;;;2.15;;
85102;SDS011;75452;44.106;3.074;2024-02-04T04:40:05;2.88;;;2.67;;
85102;SDS011;75452;44.106;3.074;2024-02-04T04:42:31;2.63;;;2.50;;
85102;SDS011;75452;44.106;3.074;2024-02-04T04:44:57;2.85;;;2.65;;
85102;SDS011;75452;44.106;3.074;2024-02-04T04:47:22;2.25;;;2.13;;
85102;SDS011;75452;44.106;3.074;2024-02-04T04:49:48;2.30;;;1.88;;
85102;SDS011;75452;44.106;3.074;2024-02-04T04:52:13;2.00;;;1.90;;
85102;SDS011;75452;44.106;3.074;2024-02-04T04:54:39;1.75;;;1.65;;
85102;SDS011;75452;44.106;3.074;2024-02-04T04:57:05;2.45;;;2.35;;
85102;SDS011;75452;44.106;3.074;2024-02-04T04:59:30;2.22;;;2.13;;
85102;SDS011;75452;44.106;3.074;2024-02-04T05:01:55;2.13;;;2.00;;
85102;SDS011;75452;44.106;3.074;2024-02-04T05:04:21;2.45;;;2.25;;
85102;SDS011;75452;44.106;3.074;2024-02-04T05:06:50;1.90;;;1.80;;
85102;SDS011;75452;44.106;3.074;2024-02-04T05:09:15;2.20;;;2.10;;
85102;SDS011;75452;44.106;3.074;2024-02-04T05:11:41;1.92;;;1.83;;
85102;SDS011;75452;44.106;3.074;2024-02-04T05:14:07;2.00;;;1.90;;
85102;SDS011;75452;44.106;3.074;2024-02-04T05:16:32;1.90;;;1.80;;
85102;SDS011;75452;44.106;3.074;2024-02-04T05:18:57;1.80;;;1.70;;
85102;SDS011;75452;44.106;3.074;2024-02-04T05:21:23;2.58;;;2.38;;
85102;SDS011;75452;44.106;3.074;2024-02-04T05:23:48;2.35;;;2.22;;
85102;SDS011;75452;44.106;3.074;2024-02-04T05:26:17;2.58;;;2.38;;
85102;SDS011;75452;44.106;3.074;2024-02-04T05:28:42;2.08;;;1.98;;
85102;SDS011;75452;44.106;3.074;2024-02-04T05:31:08;2.33;;;2.13;;
85102;SDS011;75452;44.106;3.074;2024-02-04T05:33:33;2.03;;;1.92;;
85102;SDS011;75452;44.106;3.074;2024-02-04T05:35:58;2.35;;;2.15;;
85102;SDS011;75452;44.106;3.074;2024-02-04T05:38:24;2.10;;;2.00;;
85102;SDS011;75452;44.106;3.074;2024-02-04T05:40:49;2.22;;;2.13;;
85102;SDS011;75452;44.106;3.074;2024-02-04T05:43:15;2.65;;;2.50;;
85102;SDS011;75452;44.106;3.074;2024-02-04T05:45:41;1.73;;;1.63;;
85102;SDS011;75452;44.106;3.074;2024-02-04T05:48:07;2.70;;;1.77;;
85102;SDS011;75452;44.106;3.074;2024-02-04T05:50:32;1.90;;;1.80;;
85102;SDS011;75452;44.106;3.074;2024-02-04T05:52:58;1.88;;;1.77;;
85102;SDS011;75452;44.106;3.074;2024-02-04T05:55:23;2.30;;;2.10;;
85102;SDS011;75452;44.106;3.074;2024-02-04T05:57:49;2.08;;;1.98;;
85102;SDS011;75452;44.106;3.074;2024-02-04T06:00:14;2.22;;;2.13;;
85102;SDS011;75452;44.106;3.074;2024-02-04T06:02:40;2.63;;;2.42;;
85102;SDS011;75452;44.106;3.074;2024-02-04T06:05:08;2.40;;;2.30;;
85102;SDS011;75452;44.106;3.074;2024-02-04T06:07:34;2.47;;;2.28;;
85102;SDS011;75452;44.106;3.074;2024-02-04T06:09:59;2.08;;;1.88;;
85102;SDS011;75452;44.106;3.074;2024-02-04T06:12:25;2.30;;;2.20;;
85102;SDS011;75452;44.106;3.074;2024-02-04T06:14:51;2.30;;;2.17;;
85102;SDS011;75452;44.106;3.074;2024-02-04T06:17:16;2.80;;;2.60;;
85102;SDS011;75452;44.106;3.074;2024-02-04T06:19:41;2.22;;;2.13;;
85102;SDS011;75452;44.106;3.074;2024-02-04T06:22:07;2.65;;;2.45;;
85102;SDS011;75452;44.106;3.074;2024-02-04T06:24:32;2.42;;;2.33;;
85102;SDS011;75452;44.106;3.074;2024-02-04T06:26:58;2.58;;;2.47;;
85102;SDS011;75452;44.106;3.074;2024-02-04T06:29:23;2.55;;;2.40;;
85102;SDS011;75452;44.106;3.074;2024-02-04T06:31:48;2.70;;;2.50;;
85102;SDS011;75452;44.106;3.074;2024-02-04T06:34:14;2.67;;;2.47;;
85102;SDS011;75452;44.106;3.074;2024-02-04T06:36:43;2.72;;;2.53;;
85102;SDS011;75452;44.106;3.074;2024-02-04T06:39:09;2.15;;;2.05;;
85102;SDS011;75452;44.106;3.074;2024-02-04T06:41:34;2.30;;;2.20;;
85102;SDS011;75452;44.106;3.074;2024-02-04T06:44:00;2.33;;;2.22;;
85102;SDS011;75452;44.106;3.074;2024-02-04T06:46:27;2.58;;;2.47;;
85102;SDS011;75452;44.106;3.074;2024-02-04T06:48:52;2.50;;;2.30;;
85102;SDS011;75452;44.106;3.074;2024-02-04T06:51:18;2.42;;;2.30;;
85102;SDS011;75452;44.106;3.074;2024-02-04T06:53:46;2.60;;;2.42;;
85102;SDS011;75452;44.106;3.074;2024-02-04T06:56:12;2.22;;;2.13;;
85102;SDS011;75452;44.106;3.074;2024-02-04T06:58:41;2.28;;;2.17;;
85102;SDS011;75452;44.106;3.074;2024-02-04T07:01:06;3.20;;;3.00;;
85102;SDS011;75452;44.106;3.074;2024-02-04T07:03:32;2.53;;;2.42;;
85102;SDS011;75452;44.106;3.074;2024-02-04T07:06:00;3.00;;;2.80;;
85102;SDS011;75452;44.106;3.074;2024-02-04T07:08:26;2.58;;;2.47;;
85102;SDS011;75452;44.106;3.074;2024-02-04T07:10:52;2.92;;;2.72;;
85102;SDS011;75452;44.106;3.074;2024-02-04T07:13:17;2.55;;;2.45;;
85102;SDS011;75452;44.106;3.074;2024-02-04T07:15:43;2.40;;;2.30;;
85102;SDS011;75452;44.106;3.074;2024-02-04T07:18:08;2.70;;;2.50;;
85102;SDS011;75452;44.106;3.074;2024-02-04T07:20:34;2.20;;;2.10;;
85102;SDS011;75452;44.106;3.074;2024-02-04T07:22:59;2.53;;;2.42;;
85102;SDS011;75452;44.106;3.074;2024-02-04T07:25:25;2.40;;;2.30;;
85102;SDS011;75452;44.106;3.074;2024-02-04T07:27:50;2.60;;;2.40;;
85102;SDS011;75452;44.106;3.074;2024-02-04T07:30:16;2.33;;;2.20;;
85102;SDS011;75452;44.106;3.074;2024-02-04T07:32:41;2.78;;;2.58;;
85102;SDS011;75452;44.106;3.074;2024-02-04T07:35:07;2.38;;;2.17;;
85102;SDS011;75452;44.106;3.074;2024-02-04T07:37:34;1.92;;;1.83;;
85102;SDS011;75452;44.106;3.074;2024-02-04T07:40:00;2.30;;;2.20;;
85102;SDS011;75452;44.106;3.074;2024-02-04T07:42:26;2.40;;;2.22;;
85102;SDS011;75452;44.106;3.074;2024-02-04T07:44:51;2.63;;;2.42;;
85102;SDS011;75452;44.106;3.074;2024-02-04T07:47:16;2.33;;;2.22;;
85102;SDS011;75452;44.106;3.074;2024-02-04T07:49:42;2.80;;;2.60;;
85102;SDS011;75452;44.106;3.074;2024-02-04T07:52:07;2.60;;;2.40;;
85102;SDS011;75452;44.106;3.074;2024-02-04T07:54:33;2.47;;;2.38;;
85102;SDS011;75452;44.106;3.074;2024-02-04T07:56:59;2.90;;;2.70;;
85102;SDS011;75452;44.106;3.074;2024-02-04T07:59:24;2.47;;;2.38;;
85102;SDS011;75452;44.106;3.074;2024-02-04T08:01:50;2.38;;;2.28;;
85102;SDS011;75452;44.106;3.074;2024-02-04T08:04:15;3.03;;;2.83;;
85102;SDS011;75452;44.106;3.074;2024-02-04T08:06:41;2.72;;;2.53;;
85102;SDS011;75452;44.106;3.074;2024-02-04T08:09:06;3.00;;;2.80;;
85102;SDS011;75452;44.106;3.074;2024-02-04T08:11:32;3.28;;;2.97;;
85102;SDS011;75452;44.106;3.074;2024-02-04T08:13:57;2.67;;;2.47;;
85102;SDS011;75452;44.106;3.074;2024-02-04T08:16:23;2.80;;;2.60;;
85102;SDS011;75452;44.106;3.074;2024-02-04T08:18:48;2.80;;;2.60;;
85102;SDS011;75452;44.106;3.074;2024-02-04T08:21:14;2.55;;;2.38;;
85102;SDS011;75452;44.106;3.074;2024-02-04T08:23:42;2.45;;;2.35;;
85102;SDS011;75452;44.106;3.074;2024-02-04T08:26:09;2.95;;;2.75;;
85102;SDS011;75452;44.106;3.074;2024-02-04T08:28:35;2.50;;;2.40;;
85102;SDS011;75452;44.106;3.074;2024-02-04T08:31:00;2.50;;;2.40;;
85102;SDS011;75452;44.106;3.074;2024-02-04T08:33:25;2.28;;;2.17;;
85102;SDS011;75452;44.106;3.074;2024-02-04T08:35:51;2.55;;;2.40;;
85102;SDS011;75452;44.106;3.074;2024-02-04T08:38:16;2.78;;;2.58;;
85102;SDS011;75452;44.106;3.074;2024-02-04T08:40:41;2.45;;;2.35;;
85102;SDS011;75452;44.106;3.074;2024-02-04T08:43:07;2.55;;;2.45;;
85102;SDS011;75452;44.106;3.074;2024-02-04T08:45:32;2.55;;;2.45;;
85102;SDS011;75452;44.106;3.074;2024-02-04T08:47:58;2.42;;;2.22;;
85102;SDS011;75452;44.106;3.074;2024-02-04T08:50:23;2.95;;;2.28;;
85102;SDS011;75452;44.106;3.074;2024-02-04T08:52:48;2.22;;;2.13;;
85102;SDS011;75452;44.106;3.074;2024-02-04T08:55:14;2.40;;;2.30;;
85102;SDS011;75452;44.106;3.074;2024-02-04T08:57:39;2.90;;;2.70;;
85102;SDS011;75452;44.106;3.074;2024-02-04T09:00:05;2.15;;;2.05;;
85102;SDS011;75452;44.106;3.074;2024-02-04T09:02:34;2.20;;;2.10;;
85102;SDS011;75452;44.106;3.074;2024-02-04T09:04:59;2.30;;;2.20;;
85102;SDS011;75452;44.106;3.074;2024-02-04T09:07:25;2.50;;;2.40;;
85102;SDS011;75452;44.106;3.074;2024-02-04T09:09:50;2.25;;;2.15;;
85102;SDS011;75452;44.106;3.074;2024-02-04T09:12:16;2.28;;;2.17;;
85102;SDS011;75452;44.106;3.074;2024-02-04T09:14:41;2.30;;;2.20;;
85102;SDS011;75452;44.106;3.074;2024-02-04T09:17:07;3.08;;;2.88;;
85102;SDS011;75452;44.106;3.074;2024-02-04T09:19:33;2.25;;;2.15;;
85102;SDS011;75452;44.106;3.074;2024-02-04T09:21:58;2.53;;;2.42;;
85102;SDS011;75452;44.106;3.074;2024-02-04T09:24:26;2.60;;;2.50;;
85102;SDS011;75452;44.106;3.074;2024-02-04T09:26:52;1.90;;;1.80;;
85102;SDS011;75452;44.106;3.074;2024-02-04T09:29:17;2.60;;;2.40;;
85102;SDS011;75452;44.106;3.074;2024-02-04T09:31:43;2.22;;;2.13;;
85102;SDS011;75452;44.106;3.074;2024-02-04T09:34:09;2.30;;;2.20;;
85102;SDS011;75452;44.106;3.074;2024-02-04T09:36:34;2.97;;;2.35;;
85102;SDS011;75452;44.106;3.074;2024-02-04T09:38:59;2.47;;;2.38;;
85102;SDS011;75452;44.106;3.074;2024-02-04T09:41:25;2.30;;;2.20;;
85102;SDS011;75452;44.106;3.074;2024-02-04T09:43:52;2.25;;;2.15;;
85102;SDS011;75452;44.106;3.074;2024-02-04T09:46:17;2.72;;;2.60;;
85102;SDS011;75452;44.106;3.074;2024-02-04T09:48:44;2.60;;;2.40;;
85102;SDS011;75452;44.106;3.074;2024-02-04T09:51:10;2.55;;;2.45;;
85102;SDS011;75452;44.106;3.074;2024-02-04T09:53:36;2.83;;;2.63;;
85102;SDS011;75452;44.106;3.074;2024-02-04T09:56:02;2.40;;;2.30;;
85102;SDS011;75452;44.106;3.074;2024-02-04T09:58:28;3.10;;;2.90;;
85102;SDS011;75452;44.106;3.074;2024-02-04T10:00:54;2.65;;;2.55;;
85102;SDS011;75452;44.106;3.074;2024-02-04T10:03:19;2.55;;;2.45;;
85102;SDS011;75452;44.106;3.074;2024-02-04T10:05:46;2.65;;;2.55;;
85102;SDS011;75452;44.106;3.074;2024-02-04T10:08:11;3.13;;;2.92;;
85102;SDS011;75452;44.106;3.074;2024-02-04T10:10:38;3.35;;;3.15;;
85102;SDS011;75452;44.106;3.074;2024-02-04T10:13:07;3.33;;;3.13;;
85102;SDS011;75452;44.106;3.074;2024-02-04T10:15:33;2.85;;;2.75;;
85102;SDS011;75452;44.106;3.074;2024-02-04T10:17:58;3.13;;;2.92;;
85102;SDS011;75452;44.106;3.074;2024-02-04T10:20:24;3.03;;;2.88;;
85102;SDS011;75452;44.106;3.074;2024-02-04T10:22:49;2.67;;;2.58;;
85102;SDS011;75452;44.106;3.074;2024-02-04T10:25:14;3.38;;;3.17;;
85102;SDS011;75452;44.106;3.074;2024-02-04T10:27:41;3.17;;;2.97;;
85102;SDS011;75452;44.106;3.074;2024-02-04T10:30:07;3.10;;;2.90;;
85102;SDS011;75452;44.106;3.074;2024-02-04T10:32:33;2.70;;;2.60;;
85102;SDS011;75452;44.106;3.074;2024-02-04T10:34:59;3.38;;;3.17;;
85102;SDS011;75452;44.106;3.074;2024-02-04T10:37:26;2.78;;;2.67;;
85102;SDS011;75452;44.106;3.074;2024-02-04T10:39:51;2.85;;;2.65;;
85102;SDS011;75452;44.106;3.074;2024-02-04T10:42:17;3.42;;;3.22;;
85102;SDS011;75452;44.106;3.074;2024-02-04T10:44:45;3.10;;;2.90;;
85102;SDS011;75452;44.106;3.074;2024-02-04T10:47:14;3.22;;;3.03;;
85102;SDS011;75452;44.106;3.074;2024-02-04T10:49:43;3.30;;;3.10;;
85102;SDS011;75452;44.106;3.074;2024-02-04T10:52:15;3.28;;;3.08;;
85102;SDS011;75452;44.106;3.074;2024-02-04T10:54:42;3.45;;;3.25;;
85102;SDS011;75452;44.106;3.074;2024-02-04T10:57:10;3.22;;;3.03;;
85102;SDS011;75452;44.106;3.074;2024-02-04T10:59:38;3.13;;;2.92;;
85102;SDS011;75452;44.106;3.074;2024-02-04T11:02:07;3.55;;;3.28;;
85102;SDS011;75452;44.106;3.074;2024-02-04T11:04:34;3.05;;;2.85;;
85102;SDS011;75452;44.106;3.074;2024-02-04T11:07:01;3.10;;;2.90;;
85102;SDS011;75452;44.106;3.074;2024-02-04T11:09:27;2.88;;;2.67;;
85102;SDS011;75452;44.106;3.074;2024-02-04T11:11:55;2.97;;;2.78;;
85102;SDS011;75452;44.106;3.074;2024-02-04T11:14:21;3.10;;;2.90;;
85102;SDS011;75452;44.106;3.074;2024-02-04T11:16:52;2.65;;;2.55;;
85102;SDS011;75452;44.106;3.074;2024-02-04T11:22:22;2.67;;;2.58;;
85102;SDS011;75452;44.106;3.074;2024-02-04T11:27:38;2.40;;;2.30;;
85102;SDS011;75452;44.106;3.074;2024-02-04T11:30:04;4.53;;;2.92;;
85102;SDS011;75452;44.106;3.074;2024-02-04T11:32:30;3.10;;;2.90;;
85102;SDS011;75452;44.106;3.074;2024-02-04T11:34:56;2.67;;;2.58;;
85102;SDS011;75452;44.106;3.074;2024-02-04T11:37:26;2.95;;;2.75;;
85102;SDS011;75452;44.106;3.074;2024-02-04T11:39:51;2.80;;;2.60;;
85102;SDS011;75452;44.106;3.074;2024-02-04T11:42:17;3.75;;;2.72;;
85102;SDS011;75452;44.106;3.074;2024-02-04T11:44:43;2.42;;;2.33;;
85102;SDS011;75452;44.106;3.074;2024-02-04T11:47:09;2.67;;;2.47;;
85102;SDS011;75452;44.106;3.074;2024-02-04T11:49:34;2.00;;;1.90;;
85102;SDS011;75452;44.106;3.074;2024-02-04T11:52:00;2.25;;;2.15;;
85102;SDS011;75452;44.106;3.074;2024-02-04T11:54:25;2.45;;;2.35;;
85102;SDS011;75452;44.106;3.074;2024-02-04T11:56:51;2.53;;;2.33;;
85102;SDS011;75452;44.106;3.074;2024-02-04T11:59:18;2.22;;;2.13;;
85102;SDS011;75452;44.106;3.074;2024-02-04T12:01:46;2.38;;;2.28;;
85102;SDS011;75452;44.106;3.074;2024-02-04T12:04:12;1.95;;;1.85;;
85102;SDS011;75452;44.106;3.074;2024-02-04T12:06:41;2.10;;;2.00;;
85102;SDS011;75452;44.106;3.074;2024-02-04T12:09:10;2.20;;;2.10;;
85102;SDS011;75452;44.106;3.074;2024-02-04T12:11:36;2.30;;;2.20;;
85102;SDS011;75452;44.106;3.074;2024-02-04T12:14:05;2.10;;;2.00;;
85102;SDS011;75452;44.106;3.074;2024-02-04T12:16:32;1.85;;;1.75;;
85102;SDS011;75452;44.106;3.074;2024-02-04T12:19:00;2.33;;;2.22;;
85102;SDS011;75452;44.106;3.074;2024-02-04T12:21:25;2.53;;;2.38;;
85102;SDS011;75452;44.106;3.074;2024-02-04T12:23:51;2.20;;;2.10;;
85102;SDS011;75452;44.106;3.074;2024-02-04T12:26:17;2.30;;;2.20;;
85102;SDS011;75452;44.106;3.074;2024-02-04T12:28:42;2.03;;;1.92;;
85102;SDS011;75452;44.106;3.074;2024-02-04T12:31:15;2.20;;;2.10;;
85102;SDS011;75452;44.106;3.074;2024-02-04T12:36:08;1.90;;;1.80;;
85102;SDS011;75452;44.106;3.074;2024-02-04T12:38:34;2.17;;;2.08;;
85102;SDS011;75452;44.106;3.074;2024-02-04T12:41:03;3.70;;;1.90;;
85102;SDS011;75452;44.106;3.074;2024-02-04T12:43:28;1.90;;;1.77;;
85102;SDS011;75452;44.106;3.074;2024-02-04T12:45:56;1.92;;;1.83;;
85102;SDS011;75452;44.106;3.074;2024-02-04T12:48:21;1.92;;;1.83;;
85102;SDS011;75452;44.106;3.074;2024-02-04T12:50:48;1.77;;;1.67;;
85102;SDS011;75452;44.106;3.074;2024-02-04T12:53:13;1.90;;;1.80;;
85102;SDS011;75452;44.106;3.074;2024-02-04T12:55:40;1.95;;;1.85;;
85102;SDS011;75452;44.106;3.074;2024-02-04T12:58:08;2.28;;;2.17;;
85102;SDS011;75452;44.106;3.074;2024-02-04T13:00:36;1.85;;;1.75;;
85102;SDS011;75452;44.106;3.074;2024-02-04T13:03:03;1.90;;;1.80;;
85102;SDS011;75452;44.106;3.074;2024-02-04T13:05:29;2.00;;;1.90;;
85102;SDS011;75452;44.106;3.074;2024-02-04T13:07:58;2.20;;;2.10;;
85102;SDS011;75452;44.106;3.074;2024-02-04T13:10:27;2.05;;;1.95;;
85102;SDS011;75452;44.106;3.074;2024-02-04T13:13:03;2.13;;;2.03;;
85102;SDS011;75452;44.106;3.074;2024-02-04T13:15:42;2.08;;;1.98;;
85102;SDS011;75452;44.106;3.074;2024-02-04T13:18:08;1.95;;;1.85;;
85102;SDS011;75452;44.106;3.074;2024-02-04T13:20:35;2.20;;;2.00;;
85102;SDS011;75452;44.106;3.074;2024-02-04T13:23:01;1.83;;;1.73;;
85102;SDS011;75452;44.106;3.074;2024-02-04T13:25:30;1.70;;;1.60;;
85102;SDS011;75452;44.106;3.074;2024-02-04T13:27:55;2.05;;;1.95;;
85102;SDS011;75452;44.106;3.074;2024-02-04T13:30:21;2.13;;;2.00;;
85102;SDS011;75452;44.106;3.074;2024-02-04T13:32:46;2.03;;;1.90;;
85102;SDS011;75452;44.106;3.074;2024-02-04T13:35:12;1.58;;;1.48;;
85102;SDS011;75452;44.106;3.074;2024-02-04T13:37:38;2.55;;;1.80;;
85102;SDS011;75452;44.106;3.074;2024-02-04T13:40:04;2.00;;;1.90;;
85102;SDS011;75452;44.106;3.074;2024-02-04T13:42:31;1.75;;;1.65;;
85102;SDS011;75452;44.106;3.074;2024-02-04T13:44:58;1.90;;;1.80;;
85102;SDS011;75452;44.106;3.074;2024-02-04T13:47:24;1.85;;;1.75;;
85102;SDS011;75452;44.106;3.074;2024-02-04T13:49:50;1.80;;;1.70;;
85102;SDS011;75452;44.106;3.074;2024-02-04T13:52:15;2.00;;;1.90;;
85102;SDS011;75452;44.106;3.074;2024-02-04T13:54:40;1.73;;;1.63;;
85102;SDS011;75452;44.106;3.074;2024-02-04T13:57:06;1.58;;;1.48;;
85102;SDS011;75452;44.106;3.074;2024-02-04T13:59:31;2.08;;;1.98;;
85102;SDS011;75452;44.106;3.074;2024-02-04T14:01:57;1.80;;;1.70;;
85102;SDS011;75452;44.106;3.074;2024-02-04T14:04:22;1.90;;;1.80;;
85102;SDS011;75452;44.106;3.074;2024-02-04T14:06:48;1.50;;;1.40;;
85102;SDS011;75452;44.106;3.074;2024-02-04T14:09:13;1.52;;;1.50;;
85102;SDS011;75452;44.106;3.074;2024-02-04T14:11:38;1.55;;;1.45;;
85102;SDS011;75452;44.106;3.074;2024-02-04T14:14:04;1.63;;;1.52;;
85102;SDS011;75452;44.106;3.074;2024-02-04T14:16:29;1.95;;;1.83;;
85102;SDS011;75452;44.106;3.074;2024-02-04T14:18:54;1.60;;;1.50;;
85102;SDS011;75452;44.106;3.074;2024-02-04T14:21:20;1.85;;;1.75;;
85102;SDS011;75452;44.106;3.074;2024-02-04T14:23:46;1.83;;;1.73;;
85102;SDS011;75452;44.106;3.074;2024-02-04T14:26:17;1.77;;;1.67;;
85102;SDS011;75452;44.106;3.074;2024-02-04T14:28:43;1.80;;;1.70;;
85102;SDS011;75452;44.106;3.074;2024-02-04T14:31:09;1.67;;;1.58;;
85102;SDS011;75452;44.106;3.074;2024-02-04T14:33:34;1.75;;;1.65;;
85102;SDS011;75452;44.106;3.074;2024-02-04T14:36:00;1.52;;;1.42;;
85102;SDS011;75452;44.106;3.074;2024-02-04T14:38:26;1.70;;;1.60;;
85102;SDS011;75452;44.106;3.074;2024-02-04T14:40:51;2.03;;;1.83;;
85102;SDS011;75452;44.106;3.074;2024-02-04T14:43:17;1.85;;;1.75;;
85102;SDS011;75452;44.106;3.074;2024-02-04T14:45:43;1.48;;;1.38;;
85102;SDS011;75452;44.106;3.074;2024-02-04T14:48:09;1.85;;;1.75;;
85102;SDS011;75452;44.106;3.074;2024-02-04T14:50:34;1.77;;;1.67;;